Time;durP1;ratioP1;P1;durP2;ratioP2;P2;SDS_P1;SDS_P2;PMS_P1;PMS_P2;Temp;Humidity;BMP_temperature;BMP_pressure;BME280_temperature;BME280_humidity;BME280_pressure;Samples;Min_cycle;Max_cycle;Signal;HPM_P1;HPM_P2
2022/11/10 00:00:15;;;;;;;20.63;5.03;;;;;;;;;;5080562;28;20211;-69
2022/11/10 00:02:42;;;;;;;17.45;4.68;;;;;;;;;;5077825;28;20184;-68
2022/11/10 00:05:11;;;;;;;21.63;4.80;;;;;;;;;;5083605;28;20179;-68
2022/11/10 00:07:37;;;;;;;18.38;3.95;;;;;;;;;;5079657;28;20254;-68
2022/11/10 00:10:04;;;;;;;18.33;4.55;;;;;;;;;;5071729;28;20590;-68
2022/11/10 00:12:31;;;;;;;14.98;4.80;;;;;;;;;;5076816;28;20183;-68
2022/11/10 00:17:40;;;;;;;16.70;4.63;;;;;;;;;;5080858;28;20183;-68
2022/11/10 00:20:07;;;;;;;15.88;4.70;;;;;;;;;;5075236;28;20180;-68
2022/11/10 00:22:35;;;;;;;16.60;5.25;;;;;;;;;;5079993;28;20285;-69
2022/11/10 00:25:00;;;;;;;22.35;5.30;;;;;;;;;;5084802;28;20188;-69
2022/11/10 00:27:26;;;;;;;24.52;5.88;;;;;;;;;;5086503;28;20289;-68
2022/11/10 00:29:51;;;;;;;19.23;4.88;;;;;;;;;;5077094;28;20172;-69
2022/11/10 00:32:17;;;;;;;20.98;6.03;;;;;;;;;;5083576;28;20727;-68
2022/11/10 00:34:42;;;;;;;19.13;5.20;;;;;;;;;;5086587;28;20204;-68
2022/11/10 00:37:07;;;;;;;27.08;5.20;;;;;;;;;;5083884;28;20179;-68
2022/11/10 00:39:33;;;;;;;22.83;5.90;;;;;;;;;;5080259;28;20535;-68
2022/11/10 00:41:58;;;;;;;21.83;5.43;;;;;;;;;;5081485;28;20185;-68
2022/11/10 00:44:23;;;;;;;23.65;4.82;;;;;;;;;;5079158;28;20184;-69
2022/11/10 00:46:49;;;;;;;23.70;5.00;;;;;;;;;;5087738;28;20660;-69
2022/11/10 00:49:14;;;;;;;21.85;6.15;;;;;;;;;;5084954;28;20180;-69
2022/11/10 00:51:39;;;;;;;23.67;5.40;;;;;;;;;;5085665;28;20188;-68
2022/11/10 00:54:05;;;;;;;21.52;5.53;;;;;;;;;;5082604;28;20644;-68
2022/11/10 00:56:30;;;;;;;16.85;4.43;;;;;;;;;;5075283;28;20522;-68
2022/11/10 00:58:55;;;;;;;27.17;5.30;;;;;;;;;;5085569;28;20263;-68
2022/11/10 01:01:25;;;;;;;28.42;5.80;;;;;;;;;;5076267;28;20208;-68
2022/11/10 01:03:52;;;;;;;24.30;6.25;;;;;;;;;;5074224;28;20587;-68
2022/11/10 01:06:19;;;;;;;18.80;5.65;;;;;;;;;;5083905;28;20658;-68
2022/11/10 01:08:45;;;;;;;25.42;6.63;;;;;;;;;;5070596;28;20185;-68
2022/11/10 01:11:16;;;;;;;22.65;6.95;;;;;;;;;;5079383;28;20271;-68
2022/11/10 01:13:42;;;;;;;21.08;6.03;;;;;;;;;;5081563;28;20208;-68
2022/11/10 01:16:14;;;;;;;25.13;6.25;;;;;;;;;;5082640;28;20607;-68
2022/11/10 01:18:40;;;;;;;20.65;6.35;;;;;;;;;;5079159;28;20176;-68
2022/11/10 01:21:06;;;;;;;21.33;5.65;;;;;;;;;;5083388;28;20268;-68
2022/11/10 01:23:31;;;;;;;27.20;6.50;;;;;;;;;;5077443;28;20198;-68
2022/11/10 01:26:02;;;;;;;24.88;5.97;;;;;;;;;;5080171;28;20184;-68
2022/11/10 01:28:28;;;;;;;25.45;6.55;;;;;;;;;;5085364;28;20283;-69
2022/11/10 01:31:02;;;;;;;22.75;6.20;;;;;;;;;;5071710;28;20666;-69
2022/11/10 01:33:27;;;;;;;17.33;6.07;;;;;;;;;;5083392;28;20259;-68
2022/11/10 01:35:53;;;;;;;27.80;6.80;;;;;;;;;;5088226;28;20215;-69
2022/11/10 01:38:19;;;;;;;27.33;8.20;;;;;;;;;;5090004;28;20184;-68
2022/11/10 01:40:44;;;;;;;21.63;7.50;;;;;;;;;;5075339;28;20719;-68
2022/11/10 01:43:11;;;;;;;27.75;7.47;;;;;;;;;;5085113;28;20249;-68
2022/11/10 01:45:47;;;;;;;20.63;6.80;;;;;;;;;;5076714;28;20180;-69
2022/11/10 01:48:25;;;;;;;21.15;6.10;;;;;;;;;;5087045;28;20188;-68
2022/11/10 01:50:51;;;;;;;34.83;7.72;;;;;;;;;;5076297;28;20188;-68
2022/11/10 01:53:23;;;;;;;25.55;6.53;;;;;;;;;;5073903;28;20181;-68
2022/11/10 01:55:50;;;;;;;27.17;6.82;;;;;;;;;;5087396;28;20274;-69
2022/11/10 01:58:20;;;;;;;23.60;7.32;;;;;;;;;;5081556;28;20177;-68
2022/11/10 02:00:45;;;;;;;28.75;7.43;;;;;;;;;;5071009;28;20607;-68
2022/11/10 02:03:32;;;;;;;31.50;7.38;;;;;;;;;;5074105;28;20611;-68
2022/11/10 02:05:57;;;;;;;27.05;7.35;;;;;;;;;;5083138;28;20250;-68
2022/11/10 02:08:24;;;;;;;28.67;7.18;;;;;;;;;;5080628;28;20395;-68
2022/11/10 02:10:50;;;;;;;28.15;6.55;;;;;;;;;;5072506;28;20180;-69
2022/11/10 02:13:15;;;;;;;29.70;6.90;;;;;;;;;;5079893;28;20634;-69
2022/11/10 02:15:41;;;;;;;34.88;8.57;;;;;;;;;;5074538;28;20627;-69
2022/11/10 02:18:06;;;;;;;26.55;7.93;;;;;;;;;;5081574;28;20652;-68
2022/11/10 02:20:32;;;;;;;27.85;6.93;;;;;;;;;;5078122;28;20207;-69
2022/11/10 02:22:57;;;;;;;21.45;7.10;;;;;;;;;;5081780;28;20176;-68
2022/11/10 02:25:29;;;;;;;24.67;6.38;;;;;;;;;;5085064;28;20234;-69
2022/11/10 02:27:54;;;;;;;29.23;7.07;;;;;;;;;;5087152;28;20250;-69
2022/11/10 02:30:19;;;;;;;27.90;7.40;;;;;;;;;;5078900;28;20196;-68
2022/11/10 02:32:45;;;;;;;25.60;6.97;;;;;;;;;;5077354;28;20259;-68
2022/11/10 02:35:10;;;;;;;28.55;6.80;;;;;;;;;;5082918;28;20444;-69
2022/11/10 02:37:35;;;;;;;21.97;7.17;;;;;;;;;;5080402;28;20593;-69
2022/11/10 02:40:01;;;;;;;24.07;7.17;;;;;;;;;;5085807;28;20172;-68
2022/11/10 02:42:26;;;;;;;26.15;6.70;;;;;;;;;;5078676;28;20234;-68
2022/11/10 02:44:51;;;;;;;22.63;6.13;;;;;;;;;;5075309;28;20679;-68
2022/11/10 02:47:17;;;;;;;20.10;7.50;;;;;;;;;;5074950;28;20553;-68
2022/11/10 02:49:43;;;;;;;30.27;6.75;;;;;;;;;;5071196;28;20176;-68
2022/11/10 02:52:10;;;;;;;29.63;6.70;;;;;;;;;;5084514;28;20194;-68
2022/11/10 02:54:35;;;;;;;26.30;6.80;;;;;;;;;;5083525;28;20181;-68
2022/11/10 02:57:01;;;;;;;28.17;6.82;;;;;;;;;;5079675;28;20168;-68
2022/11/10 02:59:27;;;;;;;30.88;8.05;;;;;;;;;;5084657;28;20229;-68
2022/11/10 03:01:52;;;;;;;24.08;6.65;;;;;;;;;;5072426;28;20627;-68
2022/11/10 03:04:17;;;;;;;27.08;7.22;;;;;;;;;;5087611;28;20176;-68
2022/11/10 03:06:43;;;;;;;25.88;7.35;;;;;;;;;;5078807;28;20556;-68
2022/11/10 03:09:13;;;;;;;23.90;6.47;;;;;;;;;;5074014;28;20188;-68
2022/11/10 03:11:39;;;;;;;28.30;6.93;;;;;;;;;;5077830;28;20323;-69
2022/11/10 03:14:04;;;;;;;20.77;6.68;;;;;;;;;;5082836;28;20297;-69
2022/11/10 03:16:29;;;;;;;24.95;7.25;;;;;;;;;;5072658;28;20177;-68
2022/11/10 03:18:55;;;;;;;28.70;7.38;;;;;;;;;;5086697;28;20188;-68
2022/11/10 03:21:20;;;;;;;26.08;7.13;;;;;;;;;;5076622;28;20180;-68
2022/11/10 03:23:45;;;;;;;22.20;6.50;;;;;;;;;;5071527;28;20246;-69
2022/11/10 03:26:11;;;;;;;26.67;7.03;;;;;;;;;;5080585;28;20236;-69
2022/11/10 03:28:36;;;;;;;22.55;6.95;;;;;;;;;;5081433;28;20241;-68
2022/11/10 03:31:01;;;;;;;29.07;7.47;;;;;;;;;;5078988;28;20386;-68
2022/11/10 03:33:27;;;;;;;29.45;7.38;;;;;;;;;;5075896;28;20225;-68
2022/11/10 03:35:52;;;;;;;21.58;6.45;;;;;;;;;;5079576;28;20195;-68
2022/11/10 03:38:17;;;;;;;32.95;6.75;;;;;;;;;;5086049;28;20191;-68
2022/11/10 03:40:43;;;;;;;28.58;7.25;;;;;;;;;;5086271;28;20180;-69
2022/11/10 03:43:10;;;;;;;29.42;7.15;;;;;;;;;;5079015;28;20196;-69
2022/11/10 03:45:35;;;;;;;32.08;8.00;;;;;;;;;;5077757;28;20192;-69
2022/11/10 03:48:01;;;;;;;35.33;7.60;;;;;;;;;;5081417;28;20273;-68
2022/11/10 03:50:26;;;;;;;25.77;7.90;;;;;;;;;;5080508;28;20546;-68
2022/11/10 03:52:51;;;;;;;26.95;6.70;;;;;;;;;;5082026;28;20172;-68
2022/11/10 03:55:17;;;;;;;25.77;6.68;;;;;;;;;;5076291;28;20188;-68
2022/11/10 03:57:43;;;;;;;22.23;7.20;;;;;;;;;;5075635;28;20172;-68
2022/11/10 04:00:11;;;;;;;29.23;7.25;;;;;;;;;;5079717;28;20241;-68
2022/11/10 04:02:37;;;;;;;25.42;7.15;;;;;;;;;;5079400;28;20192;-69
2022/11/10 04:10:43;;;;;;;20.70;7.30;;;;;;;;;;5072331;28;20310;-69
2022/11/10 04:15:53;;;;;;;29.30;8.27;;;;;;;;;;5069773;28;20234;-69
2022/11/10 04:18:25;;;;;;;31.38;8.82;;;;;;;;;;5085733;28;20565;-69
2022/11/10 04:20:56;;;;;;;23.33;7.45;;;;;;;;;;5080121;28;20177;-68
2022/11/10 04:23:26;;;;;;;35.08;8.45;;;;;;;;;;5080286;28;20176;-69
2022/11/10 04:28:51;;;;;;;28.05;8.02;;;;;;;;;;5078983;28;20234;-68
2022/11/10 04:31:19;;;;;;;30.88;8.82;;;;;;;;;;5080072;28;20499;-68
2022/11/10 04:33:45;;;;;;;32.42;8.65;;;;;;;;;;5083370;28;20390;-69
2022/11/10 04:36:14;;;;;;;25.30;7.90;;;;;;;;;;5085009;28;20191;-68
2022/11/10 04:38:39;;;;;;;21.02;7.20;;;;;;;;;;5084426;28;20184;-69
2022/11/10 04:41:05;;;;;;;28.40;8.90;;;;;;;;;;5069151;28;20249;-68
2022/11/10 04:43:31;;;;;;;30.95;9.23;;;;;;;;;;5081110;28;20183;-69
2022/11/10 04:45:57;;;;;;;36.13;9.00;;;;;;;;;;5071911;28;20188;-68
2022/11/10 04:48:24;;;;;;;26.90;9.00;;;;;;;;;;5084545;28;20188;-68
2022/11/10 04:50:49;;;;;;;26.83;9.48;;;;;;;;;;5074890;28;20271;-68
2022/11/10 04:53:15;;;;;;;27.65;8.45;;;;;;;;;;5079873;28;20294;-68
2022/11/10 04:55:42;;;;;;;22.63;8.43;;;;;;;;;;5080828;28;20180;-69
2022/11/10 04:58:08;;;;;;;29.92;8.70;;;;;;;;;;5079818;28;20183;-69
2022/11/10 05:00:33;;;;;;;34.42;8.20;;;;;;;;;;5077474;28;20742;-68
2022/11/10 05:03:00;;;;;;;26.05;7.97;;;;;;;;;;5074219;28;20200;-69
2022/11/10 05:05:25;;;;;;;29.65;8.23;;;;;;;;;;5071883;28;20705;-69
2022/11/10 05:07:50;;;;;;;26.88;7.65;;;;;;;;;;5074226;28;20282;-69
2022/11/10 05:10:16;;;;;;;19.33;6.88;;;;;;;;;;5084868;28;20318;-68
2022/11/10 05:12:41;;;;;;;33.78;8.95;;;;;;;;;;5072779;28;20875;-68
2022/11/10 05:15:08;;;;;;;24.63;7.63;;;;;;;;;;5070551;28;20250;-69
2022/11/10 05:17:33;;;;;;;27.00;7.28;;;;;;;;;;5085879;28;20168;-68
2022/11/10 05:19:58;;;;;;;31.00;6.72;;;;;;;;;;5081927;28;20183;-69
2022/11/10 05:22:24;;;;;;;25.17;7.40;;;;;;;;;;5071691;28;20549;-69
2022/11/10 05:24:49;;;;;;;22.52;6.28;;;;;;;;;;5072604;28;20698;-69
2022/11/10 05:27:15;;;;;;;21.92;6.10;;;;;;;;;;5075079;28;20242;-69
2022/11/10 05:29:40;;;;;;;25.40;5.80;;;;;;;;;;5086816;28;20196;-68
2022/11/10 05:32:05;;;;;;;25.15;6.78;;;;;;;;;;5082243;28;20224;-68
2022/11/10 05:34:31;;;;;;;20.30;6.43;;;;;;;;;;5081218;28;20264;-68
2022/11/10 05:36:56;;;;;;;19.58;6.55;;;;;;;;;;5088319;28;20220;-68
2022/11/10 05:39:22;;;;;;;22.60;6.05;;;;;;;;;;5084179;28;20199;-68
2022/11/10 05:41:47;;;;;;;20.50;6.32;;;;;;;;;;5071896;28;20217;-68
2022/11/10 05:44:12;;;;;;;23.42;6.30;;;;;;;;;;5077066;28;20222;-68
2022/11/10 05:46:37;;;;;;;26.75;6.07;;;;;;;;;;5071814;28;20239;-68
2022/11/10 05:49:03;;;;;;;23.77;6.97;;;;;;;;;;5081900;28;20203;-68
2022/11/10 05:51:28;;;;;;;28.33;6.30;;;;;;;;;;5083476;28;20241;-68
2022/11/10 05:53:54;;;;;;;30.35;6.15;;;;;;;;;;5080300;28;20271;-68
2022/11/10 05:56:19;;;;;;;25.67;6.53;;;;;;;;;;5076755;28;20279;-68
2022/11/10 05:58:44;;;;;;;25.98;6.22;;;;;;;;;;5080612;28;20268;-68
2022/11/10 06:01:10;;;;;;;28.48;5.70;;;;;;;;;;5072914;28;20310;-69
2022/11/10 06:03:35;;;;;;;20.10;5.95;;;;;;;;;;5071511;28;20184;-68
2022/11/10 06:06:00;;;;;;;31.48;6.65;;;;;;;;;;5067024;28;20192;-68
2022/11/10 06:08:26;;;;;;;27.35;6.97;;;;;;;;;;5071473;28;20187;-68
2022/11/10 06:10:51;;;;;;;23.50;6.00;;;;;;;;;;5079269;28;20192;-68
2022/11/10 06:13:16;;;;;;;24.85;6.05;;;;;;;;;;5077231;28;20217;-68
2022/11/10 06:15:42;;;;;;;18.80;5.97;;;;;;;;;;5079187;28;20268;-69
2022/11/10 06:18:07;;;;;;;21.95;6.03;;;;;;;;;;5070843;28;20184;-69
2022/11/10 06:20:32;;;;;;;20.75;5.85;;;;;;;;;;5076725;28;20636;-68
2022/11/10 06:23:03;;;;;;;21.30;6.00;;;;;;;;;;5068503;28;20642;-69
2022/11/10 06:25:30;;;;;;;25.92;6.07;;;;;;;;;;5078186;28;20659;-69
2022/11/10 06:27:56;;;;;;;21.90;5.80;;;;;;;;;;5083689;28;20203;-68
2022/11/10 06:30:22;;;;;;;25.45;5.80;;;;;;;;;;5081494;28;20173;-69
2022/11/10 06:32:47;;;;;;;21.50;5.80;;;;;;;;;;5078931;28;20220;-69
2022/11/10 06:35:12;;;;;;;28.10;6.97;;;;;;;;;;5076978;28;20227;-69
2022/11/10 06:37:38;;;;;;;33.55;7.28;;;;;;;;;;5073939;28;20294;-69
2022/11/10 06:40:06;;;;;;;28.13;6.05;;;;;;;;;;5083103;28;20181;-69
2022/11/10 06:42:31;;;;;;;35.28;7.22;;;;;;;;;;5078617;28;20177;-69
2022/11/10 06:44:57;;;;;;;27.85;6.60;;;;;;;;;;5073272;28;20202;-69
2022/11/10 06:47:22;;;;;;;28.58;7.47;;;;;;;;;;5072450;28;20698;-69
2022/11/10 06:49:47;;;;;;;30.15;6.65;;;;;;;;;;5073933;28;20191;-69
2022/11/10 06:52:13;;;;;;;35.75;6.72;;;;;;;;;;5073058;28;20826;-68
2022/11/10 06:54:38;;;;;;;26.08;6.78;;;;;;;;;;5070215;28;20604;-69
2022/11/10 06:57:03;;;;;;;25.38;6.45;;;;;;;;;;5073510;28;20640;-68
2022/11/10 06:59:29;;;;;;;22.15;6.78;;;;;;;;;;5069050;28;20278;-69
2022/11/10 07:01:54;;;;;;;32.35;6.30;;;;;;;;;;5066689;28;20568;-68
2022/11/10 07:04:19;;;;;;;23.83;6.32;;;;;;;;;;5076607;28;20375;-69
2022/11/10 07:06:46;;;;;;;27.23;6.70;;;;;;;;;;5076548;28;20613;-69
2022/11/10 07:09:12;;;;;;;29.98;6.80;;;;;;;;;;5069783;28;20234;-69
2022/11/10 07:11:37;;;;;;;24.13;6.22;;;;;;;;;;5068219;28;20608;-68
2022/11/10 07:14:02;;;;;;;28.88;6.55;;;;;;;;;;5065345;28;20192;-67
2022/11/10 07:16:28;;;;;;;30.63;5.82;;;;;;;;;;5070409;28;20670;-68
2022/11/10 07:18:53;;;;;;;23.85;5.60;;;;;;;;;;5065971;28;20566;-67
2022/11/10 07:21:18;;;;;;;15.65;5.25;;;;;;;;;;5072587;28;20242;-68
2022/11/10 07:23:45;;;;;;;26.65;6.47;;;;;;;;;;5071503;28;20202;-68
2022/11/10 07:26:11;;;;;;;36.15;6.32;;;;;;;;;;5066515;28;20497;-68
2022/11/10 07:28:36;;;;;;;23.25;6.30;;;;;;;;;;5067280;28;20238;-68
2022/11/10 07:31:02;;;;;;;35.53;6.50;;;;;;;;;;5066833;28;20191;-67
2022/11/10 07:33:27;;;;;;;23.77;6.00;;;;;;;;;;5074776;28;20315;-67
2022/11/10 07:35:55;;;;;;;22.10;5.95;;;;;;;;;;5068652;28;20196;-68
2022/11/10 07:38:21;;;;;;;22.13;6.15;;;;;;;;;;5069465;28;20165;-68
2022/11/10 07:40:50;;;;;;;26.63;6.32;;;;;;;;;;5069817;28;20504;-67
2022/11/10 07:43:16;;;;;;;20.40;5.55;;;;;;;;;;5075062;28;20195;-68
2022/11/10 07:45:41;;;;;;;22.05;5.63;;;;;;;;;;5075817;28;20176;-67
2022/11/10 07:48:07;;;;;;;30.50;6.50;;;;;;;;;;5077530;28;20622;-68
2022/11/10 07:50:33;;;;;;;22.30;5.45;;;;;;;;;;5072598;28;20212;-67
2022/11/10 07:53:06;;;;;;;24.38;5.00;;;;;;;;;;5072472;28;20582;-67
2022/11/10 07:55:33;;;;;;;15.57;4.75;;;;;;;;;;5071714;28;20184;-68
2022/11/10 07:57:58;;;;;;;22.15;5.43;;;;;;;;;;5078911;28;20192;-68
2022/11/10 08:00:25;;;;;;;28.33;6.20;;;;;;;;;;5078993;28;20286;-68
2022/11/10 08:02:51;;;;;;;21.75;5.20;;;;;;;;;;5065791;28;20193;-68
2022/11/10 08:05:16;;;;;;;23.20;5.47;;;;;;;;;;5072994;28;20599;-68
2022/11/10 08:07:42;;;;;;;19.90;5.05;;;;;;;;;;5083955;28;20192;-67
2022/11/10 08:10:08;;;;;;;18.20;4.97;;;;;;;;;;5071976;28;20507;-69
2022/11/10 08:12:34;;;;;;;25.55;4.90;;;;;;;;;;5076540;28;20207;-69
2022/11/10 08:14:59;;;;;;;22.02;5.53;;;;;;;;;;5070961;28;20671;-68
2022/11/10 08:17:25;;;;;;;24.10;5.70;;;;;;;;;;5068277;28;20188;-68
2022/11/10 08:19:50;;;;;;;26.65;5.25;;;;;;;;;;5074502;28;20825;-69
2022/11/10 08:22:15;;;;;;;22.13;5.07;;;;;;;;;;5070827;28;20671;-69
2022/11/10 08:24:41;;;;;;;21.15;5.15;;;;;;;;;;5084211;28;20191;-68
2022/11/10 08:27:06;;;;;;;18.20;5.60;;;;;;;;;;5073704;28;20207;-69
2022/11/10 08:29:31;;;;;;;20.92;5.25;;;;;;;;;;5074262;28;20573;-69
2022/11/10 08:31:57;;;;;;;16.05;4.53;;;;;;;;;;5072855;28;20719;-69
2022/11/10 08:34:22;;;;;;;15.88;5.00;;;;;;;;;;5073393;28;20648;-68
2022/11/10 08:36:51;;;;;;;20.17;5.13;;;;;;;;;;5072157;28;20891;-68
2022/11/10 08:39:16;;;;;;;20.88;5.00;;;;;;;;;;5072573;28;20188;-68
2022/11/10 08:41:41;;;;;;;26.50;4.72;;;;;;;;;;5069165;28;20267;-69
2022/11/10 08:44:07;;;;;;;25.73;4.93;;;;;;;;;;5084278;28;20250;-68
2022/11/10 08:46:32;;;;;;;24.38;5.80;;;;;;;;;;5075143;28;20484;-68
2022/11/10 08:48:57;;;;;;;25.58;4.60;;;;;;;;;;5085865;28;20236;-68
2022/11/10 08:51:23;;;;;;;23.13;4.90;;;;;;;;;;5084032;28;20188;-68
2022/11/10 08:53:48;;;;;;;20.27;4.53;;;;;;;;;;5074743;28;20189;-68
2022/11/10 08:56:13;;;;;;;16.98;3.85;;;;;;;;;;5071145;28;20255;-69
2022/11/10 08:58:38;;;;;;;17.13;4.18;;;;;;;;;;5067994;28;20212;-69
2022/11/10 09:01:08;;;;;;;14.30;4.40;;;;;;;;;;5077983;28;20282;-68
2022/11/10 09:03:34;;;;;;;25.92;4.38;;;;;;;;;;5073942;28;20183;-69
2022/11/10 09:05:59;;;;;;;17.13;4.07;;;;;;;;;;5076674;28;20177;-68
2022/11/10 09:08:25;;;;;;;15.63;4.35;;;;;;;;;;5080326;28;20204;-68
2022/11/10 09:10:50;;;;;;;20.00;4.30;;;;;;;;;;5073723;28;20183;-68
2022/11/10 09:13:16;;;;;;;17.70;3.95;;;;;;;;;;5081511;28;20184;-69
2022/11/10 09:15:42;;;;;;;17.30;3.80;;;;;;;;;;5078679;28;20173;-69
2022/11/10 09:18:10;;;;;;;16.98;3.85;;;;;;;;;;5073266;28;20226;-69
2022/11/10 09:20:36;;;;;;;23.35;4.07;;;;;;;;;;5075539;28;20254;-68
2022/11/10 09:23:09;;;;;;;26.90;4.45;;;;;;;;;;5070964;28;20636;-68
2022/11/10 09:25:36;;;;;;;13.05;3.33;;;;;;;;;;5082159;28;20176;-68
2022/11/10 09:28:01;;;;;;;20.70;4.47;;;;;;;;;;5077071;28;20244;-69
2022/11/10 09:30:27;;;;;;;19.70;4.07;;;;;;;;;;5074782;28;20209;-69
2022/11/10 09:32:57;;;;;;;19.90;3.90;;;;;;;;;;5078272;28;20228;-69
2022/11/10 09:35:22;;;;;;;20.80;3.92;;;;;;;;;;5081820;28;20176;-68
2022/11/10 09:37:48;;;;;;;21.15;3.90;;;;;;;;;;5080165;28;20241;-69
2022/11/10 09:40:24;;;;;;;24.90;3.67;;;;;;;;;;5079421;28;20504;-69
2022/11/10 09:42:55;;;;;;;21.25;4.30;;;;;;;;;;5069557;28;20248;-68
2022/11/10 09:45:25;;;;;;;21.27;4.28;;;;;;;;;;5074974;28;20173;-68
2022/11/10 09:47:54;;;;;;;15.00;3.58;;;;;;;;;;5074606;28;20249;-68
2022/11/10 09:50:34;;;;;;;29.67;4.38;;;;;;;;;;5071871;28;20227;-68
2022/11/10 09:53:01;;;;;;;23.40;4.30;;;;;;;;;;5070748;28;20378;-68
2022/11/10 09:55:32;;;;;;;14.52;3.60;;;;;;;;;;5076274;28;20172;-69
2022/11/10 09:57:58;;;;;;;21.40;4.25;;;;;;;;;;5069966;28;20632;-68
2022/11/10 10:00:23;;;;;;;17.20;3.85;;;;;;;;;;5076457;28;20192;-68
2022/11/10 10:03:00;;;;;;;19.90;3.85;;;;;;;;;;5069343;28;20177;-68
2022/11/10 10:05:45;;;;;;;18.98;3.85;;;;;;;;;;5073706;28;20184;-68
2022/11/10 10:08:21;;;;;;;26.45;5.13;;;;;;;;;;5073830;28;20304;-68
2022/11/10 10:10:55;;;;;;;16.40;4.72;;;;;;;;;;5080162;28;20588;-68
2022/11/10 10:13:54;;;;;;;22.42;4.75;;;;;;;;;;5076962;28;20640;-68
2022/11/10 10:16:38;;;;;;;19.75;4.43;;;;;;;;;;5072386;28;20731;-68
2022/11/10 10:19:15;;;;;;;16.42;3.55;;;;;;;;;;5072070;28;20263;-68
2022/11/10 10:22:03;;;;;;;13.55;3.78;;;;;;;;;;5076155;28;20186;-68
2022/11/10 10:24:31;;;;;;;16.83;3.80;;;;;;;;;;5077528;28;20185;-68
2022/11/10 10:26:59;;;;;;;21.52;3.70;;;;;;;;;;5078633;28;20844;-68
2022/11/10 10:29:31;;;;;;;18.75;4.72;;;;;;;;;;5076657;28;20165;-68
2022/11/10 10:31:59;;;;;;;16.25;3.50;;;;;;;;;;5067470;28;20744;-69
2022/11/10 10:34:29;;;;;;;20.70;4.68;;;;;;;;;;5071691;28;20547;-68
2022/11/10 10:36:54;;;;;;;20.30;5.05;;;;;;;;;;5078843;28;20211;-68
2022/11/10 10:39:33;;;;;;;22.90;4.95;;;;;;;;;;5081618;28;20237;-69
2022/11/10 10:41:58;;;;;;;15.00;3.42;;;;;;;;;;5082925;28;20180;-68
2022/11/10 10:44:24;;;;;;;13.93;2.97;;;;;;;;;;5083566;28;20591;-68
2022/11/10 10:46:58;;;;;;;16.48;3.60;;;;;;;;;;5085017;28;20594;-68
2022/11/10 10:49:28;;;;;;;16.80;3.15;;;;;;;;;;5085902;28;20753;-69
2022/11/10 10:52:04;;;;;;;17.27;3.42;;;;;;;;;;5069659;28;20233;-68
2022/11/10 10:54:32;;;;;;;16.45;4.00;;;;;;;;;;5066694;28;20184;-68
2022/11/10 10:57:18;;;;;;;16.75;3.60;;;;;;;;;;5088159;28;20543;-68
2022/11/10 10:59:43;;;;;;;19.30;4.05;;;;;;;;;;5087067;28;20187;-68
2022/11/10 11:02:27;;;;;;;13.95;3.67;;;;;;;;;;5088589;28;20481;-68
2022/11/10 11:05:14;;;;;;;16.50;3.45;;;;;;;;;;5088311;28;20207;-68
2022/11/10 11:07:40;;;;;;;18.77;3.83;;;;;;;;;;5067586;28;20565;-68
2022/11/10 11:10:30;;;;;;;22.50;3.50;;;;;;;;;;5084021;28;20562;-69
2022/11/10 11:13:20;;;;;;;20.90;3.78;;;;;;;;;;5067206;28;20632;-68
2022/11/10 11:16:00;;;;;;;16.02;3.67;;;;;;;;;;5073993;28;20633;-68
2022/11/10 11:18:28;;;;;;;16.48;3.63;;;;;;;;;;5067734;28;20172;-68
2022/11/10 11:21:27;;;;;;;20.83;4.22;;;;;;;;;;5070290;28;20193;-68
2022/11/10 11:24:04;;;;;;;18.00;3.92;;;;;;;;;;5071446;28;20245;-68
2022/11/10 11:26:47;;;;;;;18.52;3.20;;;;;;;;;;5071848;28;20200;-68
2022/11/10 11:29:24;;;;;;;19.20;3.55;;;;;;;;;;5070446;28;20175;-69
2022/11/10 11:32:20;;;;;;;22.40;4.63;;;;;;;;;;5074671;28;20241;-68
2022/11/10 11:34:50;;;;;;;15.43;3.50;;;;;;;;;;5067546;28;20685;-68
2022/11/10 11:38:05;;;;;;;16.55;3.47;;;;;;;;;;5082298;28;20181;-68
2022/11/10 11:40:46;;;;;;;16.90;3.28;;;;;;;;;;5060493;28;20206;-68
2022/11/10 11:43:14;;;;;;;16.73;3.65;;;;;;;;;;5070799;28;20180;-68
2022/11/10 11:46:17;;;;;;;14.95;3.22;;;;;;;;;;5080746;28;20176;-68
2022/11/10 11:48:54;;;;;;;20.02;3.60;;;;;;;;;;5071803;28;20292;-68
2022/11/10 11:51:56;;;;;;;14.65;2.90;;;;;;;;;;5070718;28;20194;-68
2022/11/10 11:54:40;;;;;;;15.40;3.10;;;;;;;;;;5073012;28;20846;-68
2022/11/10 11:57:18;;;;;;;17.63;3.03;;;;;;;;;;5069431;28;20437;-68
2022/11/10 12:00:02;;;;;;;16.60;3.78;;;;;;;;;;5075678;28;20187;-68
2022/11/10 12:02:38;;;;;;;14.70;3.40;;;;;;;;;;5081199;28;20712;-68
2022/11/10 12:05:10;;;;;;;24.98;4.25;;;;;;;;;;5076457;28;20711;-68
2022/11/10 12:07:53;;;;;;;17.83;3.70;;;;;;;;;;5078331;28;20196;-68
2022/11/10 12:10:42;;;;;;;14.02;2.85;;;;;;;;;;5082681;28;20176;-68
2022/11/10 12:13:42;;;;;;;15.50;3.50;;;;;;;;;;5071279;28;20185;-68
2022/11/10 12:16:18;;;;;;;14.95;3.10;;;;;;;;;;5070173;28;20561;-68
2022/11/10 12:19:11;;;;;;;16.55;3.40;;;;;;;;;;5086110;28;20277;-68
2022/11/10 12:22:11;;;;;;;13.30;2.90;;;;;;;;;;5080413;28;20199;-68
2022/11/10 12:25:00;;;;;;;17.58;3.05;;;;;;;;;;5070439;28;20165;-68
2022/11/10 12:27:30;;;;;;;14.25;2.75;;;;;;;;;;5086320;28;20200;-68
2022/11/10 12:30:02;;;;;;;14.30;2.60;;;;;;;;;;5074691;28;20176;-69
2022/11/10 12:32:33;;;;;;;17.27;3.25;;;;;;;;;;5078367;28;20247;-68
2022/11/10 12:35:39;;;;;;;14.00;2.85;;;;;;;;;;5073142;28;20177;-68
2022/11/10 12:38:12;;;;;;;17.65;3.55;;;;;;;;;;5006469;28;20761;-68
2022/11/10 12:40:42;;;;;;;19.50;2.90;;;;;;;;;;5001320;28;20615;-68
2022/11/10 12:43:38;;;;;;;15.27;3.17;;;;;;;;;;5045674;28;20291;-68
2022/11/10 12:46:08;;;;;;;17.48;2.40;;;;;;;;;;5065228;28;20193;-68
2022/11/10 12:48:46;;;;;;;16.15;3.00;;;;;;;;;;5073700;28;20209;-68
2022/11/10 12:51:26;;;;;;;14.63;2.47;;;;;;;;;;5074850;28;20572;-69
2022/11/10 12:53:52;;;;;;;18.30;3.20;;;;;;;;;;5073881;28;20573;-68
2022/11/10 12:56:23;;;;;;;12.20;2.47;;;;;;;;;;5084107;28;20200;-68
2022/11/10 12:59:29;;;;;;;16.10;2.33;;;;;;;;;;5078346;28;20233;-68
2022/11/10 13:02:01;;;;;;;13.13;2.90;;;;;;;;;;5078402;28;20179;-68
2022/11/10 13:04:27;;;;;;;13.35;2.65;;;;;;;;;;5084138;28;20449;-68
2022/11/10 13:06:56;;;;;;;17.33;3.13;;;;;;;;;;5081175;28;20719;-68
2022/11/10 13:09:35;;;;;;;16.27;2.88;;;;;;;;;;5077846;28;20194;-68
2022/11/10 13:12:09;;;;;;;16.58;2.60;;;;;;;;;;5082230;28;20662;-68
2022/11/10 13:14:35;;;;;;;14.98;2.72;;;;;;;;;;5082934;28;20179;-69
2022/11/10 13:17:01;;;;;;;12.13;2.53;;;;;;;;;;5086797;28;20401;-69
2022/11/10 13:19:26;;;;;;;13.02;2.55;;;;;;;;;;5077325;28;20263;-68
2022/11/10 13:21:51;;;;;;;15.80;2.28;;;;;;;;;;5079293;28;20358;-68
2022/11/10 13:24:25;;;;;;;14.23;2.22;;;;;;;;;;5068733;28;20546;-66
2022/11/10 13:27:02;;;;;;;15.15;2.40;;;;;;;;;;5077230;28;20235;-70
2022/11/10 13:29:52;;;;;;;13.40;2.28;;;;;;;;;;5077918;28;20691;-69
2022/11/10 13:32:31;;;;;;;9.38;1.92;;;;;;;;;;5082300;28;20236;-69
2022/11/10 13:35:29;;;;;;;14.30;2.38;;;;;;;;;;5077543;28;20252;-69
2022/11/10 13:37:56;;;;;;;12.85;2.67;;;;;;;;;;5055438;28;20200;-69
2022/11/10 13:40:24;;;;;;;9.88;2.50;;;;;;;;;;5083213;28;20179;-68
2022/11/10 13:42:58;;;;;;;11.90;2.38;;;;;;;;;;5090236;28;20290;-68
2022/11/10 13:45:39;;;;;;;11.98;2.33;;;;;;;;;;5090301;28;20590;-69
2022/11/10 13:48:11;;;;;;;12.38;2.38;;;;;;;;;;5089761;28;20211;-68
2022/11/10 13:50:48;;;;;;;11.50;1.95;;;;;;;;;;5089723;28;20245;-69
2022/11/10 13:53:13;;;;;;;16.80;2.85;;;;;;;;;;5090089;28;20187;-69
2022/11/10 13:56:12;;;;;;;19.42;2.72;;;;;;;;;;5090459;28;20640;-69
2022/11/10 13:58:42;;;;;;;14.75;2.20;;;;;;;;;;5076251;28;20191;-69
2022/11/10 14:01:16;;;;;;;13.55;2.30;;;;;;;;;;5089177;28;20707;-68
2022/11/10 14:03:45;;;;;;;9.63;2.10;;;;;;;;;;5068892;28;20180;-69
2022/11/10 14:06:17;;;;;;;14.40;2.22;;;;;;;;;;5081604;28;20187;-69
2022/11/10 14:08:51;;;;;;;12.38;2.60;;;;;;;;;;5080633;28;20316;-69
2022/11/10 14:11:21;;;;;;;13.18;2.78;;;;;;;;;;5082097;28;20634;-68
2022/11/10 14:13:53;;;;;;;10.80;2.03;;;;;;;;;;5083705;28;20253;-69
2022/11/10 14:16:22;;;;;;;12.85;2.63;;;;;;;;;;5073337;28;20235;-69
2022/11/10 14:18:54;;;;;;;14.93;2.65;;;;;;;;;;5088450;28;20172;-69
2022/11/10 14:21:26;;;;;;;18.65;2.60;;;;;;;;;;5080917;28;20199;-68
2022/11/10 14:23:57;;;;;;;14.77;2.80;;;;;;;;;;5085743;28;20268;-69
2022/11/10 14:26:43;;;;;;;15.55;2.25;;;;;;;;;;5071899;28;20282;-69
2022/11/10 14:29:41;;;;;;;13.80;2.60;;;;;;;;;;5083281;28;20616;-69
2022/11/10 14:32:18;;;;;;;16.63;2.25;;;;;;;;;;5060042;28;20251;-69
2022/11/10 14:34:47;;;;;;;12.70;2.58;;;;;;;;;;5089391;28;20187;-69
2022/11/10 14:37:18;;;;;;;16.65;2.58;;;;;;;;;;5088406;28;20229;-69
2022/11/10 14:39:44;;;;;;;10.32;2.60;;;;;;;;;;5080654;28;20179;-70
2022/11/10 14:42:15;;;;;;;14.52;3.00;;;;;;;;;;5082835;28;20188;-69
2022/11/10 14:44:40;;;;;;;16.58;2.67;;;;;;;;;;5081907;28;20185;-66
2022/11/10 14:47:29;;;;;;;11.65;2.45;;;;;;;;;;5077534;28;20204;-66
2022/11/10 14:50:15;;;;;;;10.75;2.05;;;;;;;;;;5072165;28;20745;-70
2022/11/10 14:52:43;;;;;;;13.45;2.95;;;;;;;;;;5081049;28;20936;-69
2022/11/10 14:55:15;;;;;;;19.83;2.65;;;;;;;;;;5084476;28;20548;-69
2022/11/10 14:57:44;;;;;;;12.57;2.38;;;;;;;;;;5072608;28;20257;-69
2022/11/10 15:00:16;;;;;;;11.15;2.75;;;;;;;;;;5070245;28;20180;-69